sensor_id;sensor_type;location;lat;lon;timestamp;pressure;altitude;pressure_sealevel;temperature;humidity
40285;BME280;25997;50.214;19.354;2023-04-06T00:01:13;98151.84;;;-1.59;42.77
40285;BME280;25997;50.214;19.354;2023-04-06T00:04:16;98157.53;;;-1.63;43.29
40285;BME280;25997;50.214;19.354;2023-04-06T00:07:20;98142.22;;;-1.62;42.48
40285;BME280;25997;50.214;19.354;2023-04-06T00:10:22;98144.78;;;-1.62;42.41
40285;BME280;25997;50.214;19.354;2023-04-06T00:13:24;98150.16;;;-1.59;42.47
40285;BME280;25997;50.214;19.354;2023-04-06T00:16:27;98146.34;;;-1.64;42.48
40285;BME280;25997;50.214;19.354;2023-04-06T00:19:29;98145.91;;;-1.70;43.17
40285;BME280;25997;50.214;19.354;2023-04-06T00:22:33;98146.56;;;-1.73;42.62
40285;BME280;25997;50.214;19.354;2023-04-06T00:25:36;98143.53;;;-1.79;43.48
40285;BME280;25997;50.214;19.354;2023-04-06T00:28:38;98149.25;;;-1.83;43.61
40285;BME280;25997;50.214;19.354;2023-04-06T00:31:41;98141.41;;;-1.84;43.64
40285;BME280;25997;50.214;19.354;2023-04-06T00:34:44;98142.19;;;-1.85;43.52
40285;BME280;25997;50.214;19.354;2023-04-06T00:37:48;98143.19;;;-1.83;43.16
40285;BME280;25997;50.214;19.354;2023-04-06T00:40:50;98139.63;;;-1.85;43.45
40285;BME280;25997;50.214;19.354;2023-04-06T00:43:53;98137.94;;;-1.85;43.62
40285;BME280;25997;50.214;19.354;2023-04-06T00:46:56;98129.34;;;-1.85;44.01
40285;BME280;25997;50.214;19.354;2023-04-06T00:53:54;98125.84;;;-1.86;44.31
40285;BME280;25997;50.214;19.354;2023-04-06T00:56:58;98125.75;;;-1.87;44.65
40285;BME280;25997;50.214;19.354;2023-04-06T01:00:06;98134.34;;;-1.87;44.48
40285;BME280;25997;50.214;19.354;2023-04-06T01:03:10;98125.09;;;-1.85;44.21
40285;BME280;25997;50.214;19.354;2023-04-06T01:06:16;98128.78;;;-1.81;43.98
40285;BME280;25997;50.214;19.354;2023-04-06T01:09:28;98124.53;;;-1.81;43.92
40285;BME280;25997;50.214;19.354;2023-04-06T01:12:33;98121.81;;;-1.82;44.33
40285;BME280;25997;50.214;19.354;2023-04-06T01:15:41;98125.84;;;-1.86;44.16
40285;BME280;25997;50.214;19.354;2023-04-06T01:18:47;98123.38;;;-1.84;44.29
40285;BME280;25997;50.214;19.354;2023-04-06T01:21:58;98132.66;;;-1.86;43.82
40285;BME280;25997;50.214;19.354;2023-04-06T01:25:09;98134.69;;;-1.94;44.04
40285;BME280;25997;50.214;19.354;2023-04-06T01:28:18;98132.19;;;-2.04;44.46
40285;BME280;25997;50.214;19.354;2023-04-06T01:31:42;98131.50;;;-2.13;44.97
40285;BME280;25997;50.214;19.354;2023-04-06T01:34:45;98132.84;;;-2.18;44.99
40285;BME280;25997;50.214;19.354;2023-04-06T01:37:47;98125.13;;;-2.18;44.79
40285;BME280;25997;50.214;19.354;2023-04-06T01:40:59;98119.50;;;-2.24;44.94
40285;BME280;25997;50.214;19.354;2023-04-06T01:44:08;98117.59;;;-2.26;45.07
40285;BME280;25997;50.214;19.354;2023-04-06T01:47:11;98109.66;;;-2.29;44.87
40285;BME280;25997;50.214;19.354;2023-04-06T01:50:15;98114.56;;;-2.32;45.40
40285;BME280;25997;50.214;19.354;2023-04-06T01:53:21;98116.78;;;-2.37;45.41
40285;BME280;25997;50.214;19.354;2023-04-06T01:56:26;98115.75;;;-2.39;45.56
40285;BME280;25997;50.214;19.354;2023-04-06T01:59:49;98119.34;;;-2.37;45.55
40285;BME280;25997;50.214;19.354;2023-04-06T02:02:57;98113.44;;;-2.36;45.13
40285;BME280;25997;50.214;19.354;2023-04-06T02:06:03;98104.72;;;-2.38;45.25
40285;BME280;25997;50.214;19.354;2023-04-06T02:09:11;98110.31;;;-2.32;45.19
40285;BME280;25997;50.214;19.354;2023-04-06T02:12:15;98114.25;;;-2.25;44.83
40285;BME280;25997;50.214;19.354;2023-04-06T02:15:17;98112.59;;;-2.25;44.86
40285;BME280;25997;50.214;19.354;2023-04-06T02:18:20;98106.53;;;-2.25;44.96
40285;BME280;25997;50.214;19.354;2023-04-06T02:21:23;98110.22;;;-2.33;45.42
40285;BME280;25997;50.214;19.354;2023-04-06T02:24:26;98104.38;;;-2.43;45.33
40285;BME280;25997;50.214;19.354;2023-04-06T02:27:29;98104.88;;;-2.47;45.56
40285;BME280;25997;50.214;19.354;2023-04-06T02:30:33;98098.63;;;-2.50;45.29
40285;BME280;25997;50.214;19.354;2023-04-06T02:33:35;98101.31;;;-2.49;45.42
40285;BME280;25997;50.214;19.354;2023-04-06T02:36:38;98105.03;;;-2.45;45.18
40285;BME280;25997;50.214;19.354;2023-04-06T02:39:42;98111.94;;;-2.44;45.46
40285;BME280;25997;50.214;19.354;2023-04-06T02:42:46;98112.59;;;-2.47;45.48
40285;BME280;25997;50.214;19.354;2023-04-06T02:45:50;98107.34;;;-2.48;45.21
40285;BME280;25997;50.214;19.354;2023-04-06T02:48:55;98100.28;;;-2.51;45.42
40285;BME280;25997;50.214;19.354;2023-04-06T02:52:02;98114.81;;;-2.51;45.38
40285;BME280;25997;50.214;19.354;2023-04-06T02:55:09;98115.25;;;-2.57;45.42
40285;BME280;25997;50.214;19.354;2023-04-06T02:58:13;98119.28;;;-2.60;45.51
40285;BME280;25997;50.214;19.354;2023-04-06T03:01:20;98124.56;;;-2.69;45.99
40285;BME280;25997;50.214;19.354;2023-04-06T03:04:29;98113.94;;;-2.73;45.76
40285;BME280;25997;50.214;19.354;2023-04-06T03:07:34;98114.47;;;-2.77;46.13
40285;BME280;25997;50.214;19.354;2023-04-06T03:10:36;98117.34;;;-2.84;46.77
40285;BME280;25997;50.214;19.354;2023-04-06T03:13:40;98117.34;;;-2.84;45.88
40285;BME280;25997;50.214;19.354;2023-04-06T03:16:44;98114.75;;;-2.84;45.75
40285;BME280;25997;50.214;19.354;2023-04-06T03:19:53;98114.13;;;-2.82;45.69
40285;BME280;25997;50.214;19.354;2023-04-06T03:22:56;98122.97;;;-2.78;45.55
40285;BME280;25997;50.214;19.354;2023-04-06T03:26:03;98117.59;;;-2.81;46.25
40285;BME280;25997;50.214;19.354;2023-04-06T03:29:07;98120.94;;;-2.82;46.03
40285;BME280;25997;50.214;19.354;2023-04-06T03:32:10;98114.53;;;-2.87;46.28
40285;BME280;25997;50.214;19.354;2023-04-06T03:35:15;98124.69;;;-2.89;46.22
40285;BME280;25997;50.214;19.354;2023-04-06T03:38:18;98119.19;;;-2.93;46.87
40285;BME280;25997;50.214;19.354;2023-04-06T03:41:20;98123.31;;;-2.95;47.03
40285;BME280;25997;50.214;19.354;2023-04-06T03:44:34;98122.91;;;-2.90;46.59
40285;BME280;25997;50.214;19.354;2023-04-06T03:47:38;98129.81;;;-2.89;46.54
40285;BME280;25997;50.214;19.354;2023-04-06T03:50:42;98114.91;;;-2.83;46.53
40285;BME280;25997;50.214;19.354;2023-04-06T03:53:45;98122.06;;;-2.79;46.14
40285;BME280;25997;50.214;19.354;2023-04-06T03:56:47;98122.31;;;-2.76;45.88
40285;BME280;25997;50.214;19.354;2023-04-06T03:59:51;98120.88;;;-2.72;45.76
40285;BME280;25997;50.214;19.354;2023-04-06T04:02:54;98130.38;;;-2.71;46.03
40285;BME280;25997;50.214;19.354;2023-04-06T04:05:56;98135.63;;;-2.70;46.08
40285;BME280;25997;50.214;19.354;2023-04-06T04:09:00;98127.81;;;-2.71;45.94
40285;BME280;25997;50.214;19.354;2023-04-06T04:12:03;98130.38;;;-2.71;45.94
40285;BME280;25997;50.214;19.354;2023-04-06T04:15:08;98125.91;;;-2.74;45.98
40285;BME280;25997;50.214;19.354;2023-04-06T04:18:11;98127.69;;;-2.73;46.01
40285;BME280;25997;50.214;19.354;2023-04-06T04:21:14;98126.25;;;-2.69;46.30
40285;BME280;25997;50.214;19.354;2023-04-06T04:24:17;98125.72;;;-2.65;46.05
40285;BME280;25997;50.214;19.354;2023-04-06T04:27:19;98123.50;;;-2.61;46.13
40285;BME280;25997;50.214;19.354;2023-04-06T04:30:25;98117.94;;;-2.55;46.22
40285;BME280;25997;50.214;19.354;2023-04-06T04:33:28;98126.78;;;-2.52;46.42
40285;BME280;25997;50.214;19.354;2023-04-06T04:36:32;98128.34;;;-2.54;46.59
40285;BME280;25997;50.214;19.354;2023-04-06T04:39:39;98122.16;;;-2.56;46.55
40285;BME280;25997;50.214;19.354;2023-04-06T04:42:41;98131.28;;;-2.49;46.44
40285;BME280;25997;50.214;19.354;2023-04-06T04:45:51;98125.28;;;-2.38;46.38
40285;BME280;25997;50.214;19.354;2023-04-06T04:49:15;98127.22;;;-2.24;46.16
40285;BME280;25997;50.214;19.354;2023-04-06T04:52:18;98117.41;;;-2.18;46.54
40285;BME280;25997;50.214;19.354;2023-04-06T04:55:34;98129.50;;;-2.05;46.50
40285;BME280;25997;50.214;19.354;2023-04-06T04:58:39;98125.97;;;-1.96;46.57
40285;BME280;25997;50.214;19.354;2023-04-06T05:01:44;98121.81;;;-1.82;46.56
40285;BME280;25997;50.214;19.354;2023-04-06T05:04:46;98123.19;;;-1.64;46.10
40285;BME280;25997;50.214;19.354;2023-04-06T05:07:56;98119.84;;;-1.51;45.74
40285;BME280;25997;50.214;19.354;2023-04-06T05:11:15;98130.94;;;-1.41;45.43
40285;BME280;25997;50.214;19.354;2023-04-06T05:14:21;98121.97;;;-1.34;45.71
40285;BME280;25997;50.214;19.354;2023-04-06T05:17:25;98121.84;;;-1.24;45.54
40285;BME280;25997;50.214;19.354;2023-04-06T05:20:29;98122.06;;;-1.21;45.67
40285;BME280;25997;50.214;19.354;2023-04-06T05:23:31;98118.81;;;-1.19;45.71
40285;BME280;25997;50.214;19.354;2023-04-06T05:26:36;98121.16;;;-1.10;45.89
40285;BME280;25997;50.214;19.354;2023-04-06T05:29:45;98128.06;;;-0.98;45.68
40285;BME280;25997;50.214;19.354;2023-04-06T05:32:50;98123.81;;;-0.85;45.32
40285;BME280;25997;50.214;19.354;2023-04-06T05:35:54;98119.22;;;-0.78;45.07
40285;BME280;25997;50.214;19.354;2023-04-06T05:38:57;98116.38;;;-0.69;45.33
40285;BME280;25997;50.214;19.354;2023-04-06T05:42:17;98117.44;;;-0.54;44.79
40285;BME280;25997;50.214;19.354;2023-04-06T05:45:27;98114.34;;;-0.37;44.97
40285;BME280;25997;50.214;19.354;2023-04-06T05:48:33;98114.63;;;-0.21;44.63
40285;BME280;25997;50.214;19.354;2023-04-06T05:51:37;98104.91;;;-0.12;44.05
40285;BME280;25997;50.214;19.354;2023-04-06T05:54:40;98113.69;;;0.03;44.29
40285;BME280;25997;50.214;19.354;2023-04-06T05:57:43;98106.19;;;0.19;44.26
40285;BME280;25997;50.214;19.354;2023-04-06T06:00:48;98105.53;;;0.35;43.93
40285;BME280;25997;50.214;19.354;2023-04-06T06:03:55;98102.56;;;0.42;43.70
40285;BME280;25997;50.214;19.354;2023-04-06T06:07:02;98099.75;;;0.39;44.02
40285;BME280;25997;50.214;19.354;2023-04-06T06:10:16;98106.47;;;0.48;43.94
40285;BME280;25997;50.214;19.354;2023-04-06T06:13:19;98099.81;;;0.52;43.35
40285;BME280;25997;50.214;19.354;2023-04-06T06:16:22;98107.84;;;0.57;43.37
40285;BME280;25997;50.214;19.354;2023-04-06T06:19:25;98109.34;;;0.66;43.47
40285;BME280;25997;50.214;19.354;2023-04-06T06:22:32;98106.38;;;0.86;43.63
40285;BME280;25997;50.214;19.354;2023-04-06T06:25:34;98107.13;;;0.98;43.60
40285;BME280;25997;50.214;19.354;2023-04-06T06:28:38;98111.78;;;1.17;43.56
40285;BME280;25997;50.214;19.354;2023-04-06T06:31:40;98107.16;;;1.39;43.46
40285;BME280;25997;50.214;19.354;2023-04-06T06:34:44;98108.66;;;1.63;42.81
40285;BME280;25997;50.214;19.354;2023-04-06T06:37:47;98109.09;;;1.84;42.71
40285;BME280;25997;50.214;19.354;2023-04-06T06:40:53;98104.81;;;1.99;42.28
40285;BME280;25997;50.214;19.354;2023-04-06T06:43:58;98113.84;;;2.20;42.14
40285;BME280;25997;50.214;19.354;2023-04-06T06:47:02;98107.28;;;2.40;41.59
40285;BME280;25997;50.214;19.354;2023-04-06T06:50:07;98100.19;;;2.52;40.97
40285;BME280;25997;50.214;19.354;2023-04-06T06:53:10;98103.25;;;2.59;40.29
40285;BME280;25997;50.214;19.354;2023-04-06T06:56:12;98107.06;;;2.51;40.27
40285;BME280;25997;50.214;19.354;2023-04-06T06:59:15;98102.78;;;2.52;40.07
40285;BME280;25997;50.214;19.354;2023-04-06T07:02:18;98105.47;;;2.39;39.97
40285;BME280;25997;50.214;19.354;2023-04-06T07:05:23;98107.78;;;2.49;39.78
40285;BME280;25997;50.214;19.354;2023-04-06T07:08:25;98105.38;;;2.52;39.17
40285;BME280;25997;50.214;19.354;2023-04-06T07:11:27;98108.59;;;2.48;38.96
40285;BME280;25997;50.214;19.354;2023-04-06T07:14:30;98105.19;;;2.49;39.03
40285;BME280;25997;50.214;19.354;2023-04-06T07:17:33;98097.25;;;2.31;38.62
40285;BME280;25997;50.214;19.354;2023-04-06T07:20:37;98098.59;;;2.25;38.47
40285;BME280;25997;50.214;19.354;2023-04-06T07:23:39;98105.38;;;2.23;38.60
40285;BME280;25997;50.214;19.354;2023-04-06T07:26:42;98099.75;;;2.30;38.49
40285;BME280;25997;50.214;19.354;2023-04-06T07:29:44;98090.91;;;2.41;38.30
40285;BME280;25997;50.214;19.354;2023-04-06T07:32:47;98098.69;;;2.41;38.20
40285;BME280;25997;50.214;19.354;2023-04-06T07:35:51;98097.59;;;2.52;38.49
40285;BME280;25997;50.214;19.354;2023-04-06T07:38:54;98107.97;;;2.66;38.38
40285;BME280;25997;50.214;19.354;2023-04-06T07:41:58;98107.16;;;2.67;38.10
40285;BME280;25997;50.214;19.354;2023-04-06T07:45:01;98102.38;;;2.44;37.64
40285;BME280;25997;50.214;19.354;2023-04-06T07:48:03;98104.31;;;2.34;37.66
40285;BME280;25997;50.214;19.354;2023-04-06T07:51:08;98100.03;;;2.20;37.53
40285;BME280;25997;50.214;19.354;2023-04-06T07:54:16;98107.69;;;2.18;37.92
40285;BME280;25997;50.214;19.354;2023-04-06T07:57:19;98113.78;;;2.19;37.83
40285;BME280;25997;50.214;19.354;2023-04-06T08:00:22;98113.06;;;2.21;38.03
40285;BME280;25997;50.214;19.354;2023-04-06T08:03:25;98116.16;;;2.16;37.96
40285;BME280;25997;50.214;19.354;2023-04-06T08:06:29;98115.03;;;2.11;37.88
40285;BME280;25997;50.214;19.354;2023-04-06T08:09:31;98106.16;;;2.07;38.03
40285;BME280;25997;50.214;19.354;2023-04-06T08:12:34;98109.66;;;2.22;38.05
40285;BME280;25997;50.214;19.354;2023-04-06T08:15:37;98100.38;;;2.40;38.11
40285;BME280;25997;50.214;19.354;2023-04-06T08:18:39;98105.00;;;2.60;37.88
40285;BME280;25997;50.214;19.354;2023-04-06T08:21:44;98104.13;;;2.74;37.47
40285;BME280;25997;50.214;19.354;2023-04-06T08:24:50;98106.34;;;2.83;37.62
40285;BME280;25997;50.214;19.354;2023-04-06T08:27:53;98103.31;;;2.90;37.38
40285;BME280;25997;50.214;19.354;2023-04-06T08:30:56;98097.81;;;3.00;37.21
40285;BME280;25997;50.214;19.354;2023-04-06T08:33:59;98105.28;;;2.94;37.40
40285;BME280;25997;50.214;19.354;2023-04-06T08:37:03;98090.59;;;3.25;37.60
40285;BME280;25997;50.214;19.354;2023-04-06T08:40:07;98096.38;;;3.36;37.22
40285;BME280;25997;50.214;19.354;2023-04-06T08:43:13;98094.72;;;3.53;37.21
40285;BME280;25997;50.214;19.354;2023-04-06T08:46:17;98087.97;;;3.56;36.48
40285;BME280;25997;50.214;19.354;2023-04-06T08:49:19;98079.78;;;3.49;36.40
40285;BME280;25997;50.214;19.354;2023-04-06T08:52:25;98084.00;;;3.47;36.58
40285;BME280;25997;50.214;19.354;2023-04-06T08:55:29;98070.69;;;3.57;36.73
40285;BME280;25997;50.214;19.354;2023-04-06T08:58:34;98062.75;;;3.70;36.19
40285;BME280;25997;50.214;19.354;2023-04-06T09:01:39;98069.22;;;3.94;36.54
40285;BME280;25997;50.214;19.354;2023-04-06T09:04:44;98061.25;;;4.07;36.18
40285;BME280;25997;50.214;19.354;2023-04-06T09:07:48;98052.75;;;4.27;35.68
40285;BME280;25997;50.214;19.354;2023-04-06T09:10:51;98061.88;;;4.19;35.84
40285;BME280;25997;50.214;19.354;2023-04-06T09:13:55;98063.31;;;4.30;35.57
40285;BME280;25997;50.214;19.354;2023-04-06T09:16:58;98065.28;;;4.18;35.13
40285;BME280;25997;50.214;19.354;2023-04-06T09:20:01;98063.56;;;4.18;35.49
40285;BME280;25997;50.214;19.354;2023-04-06T09:23:17;98051.88;;;4.27;34.57
40285;BME280;25997;50.214;19.354;2023-04-06T09:26:19;98052.41;;;4.37;35.61
40285;BME280;25997;50.214;19.354;2023-04-06T09:29:23;98049.81;;;4.37;35.33
40285;BME280;25997;50.214;19.354;2023-04-06T09:32:27;98050.91;;;4.42;35.09
40285;BME280;25997;50.214;19.354;2023-04-06T09:35:29;98043.41;;;4.31;34.94
40285;BME280;25997;50.214;19.354;2023-04-06T09:38:36;98038.13;;;4.29;35.08
40285;BME280;25997;50.214;19.354;2023-04-06T09:41:39;98035.94;;;4.54;35.28
40285;BME280;25997;50.214;19.354;2023-04-06T09:44:41;98043.06;;;4.58;35.17
40285;BME280;25997;50.214;19.354;2023-04-06T09:47:45;98035.47;;;4.63;34.97
40285;BME280;25997;50.214;19.354;2023-04-06T09:50:49;98038.75;;;4.41;35.23
40285;BME280;25997;50.214;19.354;2023-04-06T09:53:54;98036.13;;;4.75;35.24
40285;BME280;25997;50.214;19.354;2023-04-06T09:57:07;98046.97;;;4.33;34.50
40285;BME280;25997;50.214;19.354;2023-04-06T10:00:17;98037.06;;;4.42;35.23
40285;BME280;25997;50.214;19.354;2023-04-06T10:03:27;98042.06;;;4.72;35.16
40285;BME280;25997;50.214;19.354;2023-04-06T10:06:35;98042.13;;;4.91;35.01
40285;BME280;25997;50.214;19.354;2023-04-06T10:09:39;98030.28;;;4.63;34.55
40285;BME280;25997;50.214;19.354;2023-04-06T10:12:43;98032.59;;;4.39;34.97
40285;BME280;25997;50.214;19.354;2023-04-06T10:15:46;98039.72;;;4.43;34.98
40285;BME280;25997;50.214;19.354;2023-04-06T10:18:54;98036.31;;;4.44;34.85
40285;BME280;25997;50.214;19.354;2023-04-06T10:21:59;98029.25;;;4.42;35.04
40285;BME280;25997;50.214;19.354;2023-04-06T10:25:07;98018.19;;;4.46;34.49
40285;BME280;25997;50.214;19.354;2023-04-06T10:28:11;98027.72;;;4.29;34.89
40285;BME280;25997;50.214;19.354;2023-04-06T10:31:14;98021.03;;;4.16;35.11
40285;BME280;25997;50.214;19.354;2023-04-06T10:34:16;98016.63;;;4.15;35.19
40285;BME280;25997;50.214;19.354;2023-04-06T10:37:19;98012.50;;;4.19;35.13
40285;BME280;25997;50.214;19.354;2023-04-06T10:40:24;98014.16;;;4.35;34.96
40285;BME280;25997;50.214;19.354;2023-04-06T10:43:33;98009.31;;;4.25;34.77
40285;BME280;25997;50.214;19.354;2023-04-06T10:46:35;98004.28;;;4.45;34.93
40285;BME280;25997;50.214;19.354;2023-04-06T10:49:38;97990.53;;;4.65;34.66
40285;BME280;25997;50.214;19.354;2023-04-06T10:52:40;97993.66;;;4.58;34.48
40285;BME280;25997;50.214;19.354;2023-04-06T10:55:45;97998.19;;;4.62;34.46
40285;BME280;25997;50.214;19.354;2023-04-06T10:58:48;97985.94;;;4.95;34.63
40285;BME280;25997;50.214;19.354;2023-04-06T11:01:50;97994.13;;;5.22;34.33
40285;BME280;25997;50.214;19.354;2023-04-06T11:04:55;97984.47;;;5.19;34.03
40285;BME280;25997;50.214;19.354;2023-04-06T11:07:57;97982.13;;;5.06;34.31
40285;BME280;25997;50.214;19.354;2023-04-06T11:11:09;97988.63;;;5.16;34.13
40285;BME280;25997;50.214;19.354;2023-04-06T11:14:11;97989.88;;;5.24;34.11
40285;BME280;25997;50.214;19.354;2023-04-06T11:17:14;97982.63;;;5.17;34.24
40285;BME280;25997;50.214;19.354;2023-04-06T11:20:16;97986.44;;;5.25;34.29
40285;BME280;25997;50.214;19.354;2023-04-06T11:23:23;97979.06;;;5.15;34.07
40285;BME280;25997;50.214;19.354;2023-04-06T11:26:28;97985.81;;;4.74;34.33
40285;BME280;25997;50.214;19.354;2023-04-06T11:29:30;97987.66;;;4.42;34.57
40285;BME280;25997;50.214;19.354;2023-04-06T11:32:40;97984.91;;;4.21;34.72
40285;BME280;25997;50.214;19.354;2023-04-06T11:35:43;97980.81;;;4.26;35.03
40285;BME280;25997;50.214;19.354;2023-04-06T11:38:47;97981.56;;;4.24;35.21
40285;BME280;25997;50.214;19.354;2023-04-06T11:41:52;97989.13;;;4.19;35.06
40285;BME280;25997;50.214;19.354;2023-04-06T11:44:56;97976.63;;;4.12;35.06
40285;BME280;25997;50.214;19.354;2023-04-06T11:48:00;97974.06;;;4.30;35.29
40285;BME280;25997;50.214;19.354;2023-04-06T11:51:02;97973.53;;;4.19;35.60
40285;BME280;25997;50.214;19.354;2023-04-06T11:54:05;97972.56;;;4.17;35.63
40285;BME280;25997;50.214;19.354;2023-04-06T11:57:09;97970.91;;;4.01;36.00
40285;BME280;25997;50.214;19.354;2023-04-06T12:00:13;97979.47;;;4.16;36.01
40285;BME280;25997;50.214;19.354;2023-04-06T12:03:15;97969.09;;;3.83;36.13
40285;BME280;25997;50.214;19.354;2023-04-06T12:06:18;97960.84;;;3.74;36.53
40285;BME280;25997;50.214;19.354;2023-04-06T12:09:20;97964.75;;;3.66;36.52
40285;BME280;25997;50.214;19.354;2023-04-06T12:12:24;97958.44;;;3.61;37.09
40285;BME280;25997;50.214;19.354;2023-04-06T12:15:27;97953.00;;;3.40;37.55
40285;BME280;25997;50.214;19.354;2023-04-06T12:18:29;97944.22;;;3.04;38.74
40285;BME280;25997;50.214;19.354;2023-04-06T12:21:32;97961.31;;;3.17;38.59
40285;BME280;25997;50.214;19.354;2023-04-06T12:24:36;97952.38;;;3.12;39.05
40285;BME280;25997;50.214;19.354;2023-04-06T12:27:40;97962.84;;;2.97;39.29
40285;BME280;25997;50.214;19.354;2023-04-06T12:30:42;97959.66;;;2.87;39.44
40285;BME280;25997;50.214;19.354;2023-04-06T12:33:47;97957.03;;;2.70;40.16
40285;BME280;25997;50.214;19.354;2023-04-06T12:36:49;97951.69;;;2.84;40.10
40285;BME280;25997;50.214;19.354;2023-04-06T12:39:52;97955.78;;;2.95;40.44
40285;BME280;25997;50.214;19.354;2023-04-06T12:42:56;97953.97;;;2.78;41.97
40285;BME280;25997;50.214;19.354;2023-04-06T12:45:59;97958.22;;;2.61;42.35
40285;BME280;25997;50.214;19.354;2023-04-06T12:49:01;97957.03;;;2.40;43.15
40285;BME280;25997;50.214;19.354;2023-04-06T12:52:04;97964.28;;;2.16;44.48
40285;BME280;25997;50.214;19.354;2023-04-06T12:55:07;97964.31;;;2.02;44.87
40285;BME280;25997;50.214;19.354;2023-04-06T12:58:11;97958.63;;;1.92;45.00
40285;BME280;25997;50.214;19.354;2023-04-06T13:01:14;97963.94;;;1.95;45.06
40285;BME280;25997;50.214;19.354;2023-04-06T13:04:16;97960.38;;;1.93;45.43
40285;BME280;25997;50.214;19.354;2023-04-06T13:07:19;97950.56;;;1.88;45.59
40285;BME280;25997;50.214;19.354;2023-04-06T13:10:21;97957.44;;;1.87;46.00
40285;BME280;25997;50.214;19.354;2023-04-06T13:13:26;97957.19;;;1.83;46.84
40285;BME280;25997;50.214;19.354;2023-04-06T13:16:29;97959.75;;;1.83;46.57
40285;BME280;25997;50.214;19.354;2023-04-06T13:19:31;97941.84;;;1.86;46.60
40285;BME280;25997;50.214;19.354;2023-04-06T13:22:34;97946.81;;;1.83;46.90
40285;BME280;25997;50.214;19.354;2023-04-06T13:25:36;97939.94;;;1.98;46.78
40285;BME280;25997;50.214;19.354;2023-04-06T13:28:40;97941.53;;;2.11;47.16
40285;BME280;25997;50.214;19.354;2023-04-06T13:31:43;97931.34;;;2.14;46.91
40285;BME280;25997;50.214;19.354;2023-04-06T13:34:45;97934.84;;;2.14;47.37
40285;BME280;25997;50.214;19.354;2023-04-06T13:37:49;97937.41;;;2.14;47.59
40285;BME280;25997;50.214;19.354;2023-04-06T13:40:53;97930.25;;;2.25;47.59
40285;BME280;25997;50.214;19.354;2023-04-06T13:43:56;97926.31;;;2.31;47.43
40285;BME280;25997;50.214;19.354;2023-04-06T13:46:59;97924.31;;;2.42;47.41
40285;BME280;25997;50.214;19.354;2023-04-06T13:50:02;97915.09;;;2.47;47.24
40285;BME280;25997;50.214;19.354;2023-04-06T13:53:05;97909.28;;;2.51;47.63
40285;BME280;25997;50.214;19.354;2023-04-06T13:56:08;97911.97;;;2.52;47.49
40285;BME280;25997;50.214;19.354;2023-04-06T13:59:12;97908.13;;;2.46;47.60
40285;BME280;25997;50.214;19.354;2023-04-06T14:02:14;97898.41;;;2.42;47.84
40285;BME280;25997;50.214;19.354;2023-04-06T14:05:17;97899.28;;;2.42;47.66
40285;BME280;25997;50.214;19.354;2023-04-06T14:08:19;97905.88;;;2.21;47.81
40285;BME280;25997;50.214;19.354;2023-04-06T14:11:22;97914.22;;;2.01;48.25
40285;BME280;25997;50.214;19.354;2023-04-06T14:14:26;97917.97;;;1.91;48.42
40285;BME280;25997;50.214;19.354;2023-04-06T14:17:28;97917.13;;;1.91;48.42
40285;BME280;25997;50.214;19.354;2023-04-06T14:20:31;97920.53;;;1.75;48.50
40285;BME280;25997;50.214;19.354;2023-04-06T14:23:33;97919.50;;;1.73;48.57
40285;BME280;25997;50.214;19.354;2023-04-06T14:26:36;97916.13;;;1.74;48.40
40285;BME280;25997;50.214;19.354;2023-04-06T14:29:40;97914.59;;;1.78;48.21
40285;BME280;25997;50.214;19.354;2023-04-06T14:32:43;97912.00;;;1.78;48.45
40285;BME280;25997;50.214;19.354;2023-04-06T14:35:46;97917.19;;;1.78;48.50
40285;BME280;25997;50.214;19.354;2023-04-06T14:38:48;97919.78;;;1.78;48.47
40285;BME280;25997;50.214;19.354;2023-04-06T14:41:50;97905.72;;;1.73;48.92
40285;BME280;25997;50.214;19.354;2023-04-06T14:44:55;97923.81;;;1.73;48.72
40285;BME280;25997;50.214;19.354;2023-04-06T14:47:57;97910.97;;;1.60;49.28
40285;BME280;25997;50.214;19.354;2023-04-06T14:50:59;97910.53;;;1.52;49.29
40285;BME280;25997;50.214;19.354;2023-04-06T14:54:02;97909.19;;;1.59;49.34
40285;BME280;25997;50.214;19.354;2023-04-06T14:57:05;97911.13;;;1.63;49.28
40285;BME280;25997;50.214;19.354;2023-04-06T15:00:10;97912.94;;;1.64;49.67
40285;BME280;25997;50.214;19.354;2023-04-06T15:03:13;97916.78;;;1.70;49.44
40285;BME280;25997;50.214;19.354;2023-04-06T15:06:17;97909.00;;;1.70;50.08
40285;BME280;25997;50.214;19.354;2023-04-06T15:09:21;97909.91;;;1.71;49.84
40285;BME280;25997;50.214;19.354;2023-04-06T15:12:23;97907.94;;;1.81;49.57
40285;BME280;25997;50.214;19.354;2023-04-06T15:15:28;97914.53;;;1.76;50.05
40285;BME280;25997;50.214;19.354;2023-04-06T15:18:30;97909.91;;;1.71;50.12
40285;BME280;25997;50.214;19.354;2023-04-06T15:21:33;97914.19;;;1.70;50.23
40285;BME280;25997;50.214;19.354;2023-04-06T15:24:35;97908.03;;;1.68;50.40
40285;BME280;25997;50.214;19.354;2023-04-06T15:27:38;97917.13;;;1.76;50.28
40285;BME280;25997;50.214;19.354;2023-04-06T15:30:41;97909.91;;;1.71;50.16
40285;BME280;25997;50.214;19.354;2023-04-06T15:33:44;97915.59;;;1.65;50.40
40285;BME280;25997;50.214;19.354;2023-04-06T15:36:46;97915.59;;;1.65;50.25
40285;BME280;25997;50.214;19.354;2023-04-06T15:39:49;97922.31;;;1.62;50.41
40285;BME280;25997;50.214;19.354;2023-04-06T15:42:51;97919.00;;;1.64;50.15
40285;BME280;25997;50.214;19.354;2023-04-06T15:45:55;97921.94;;;1.70;50.00
40285;BME280;25997;50.214;19.354;2023-04-06T15:48:58;97927.28;;;1.73;49.82
40285;BME280;25997;50.214;19.354;2023-04-06T15:52:00;97921.13;;;1.71;50.10
40285;BME280;25997;50.214;19.354;2023-04-06T15:55:05;97925.88;;;1.64;50.09
40285;BME280;25997;50.214;19.354;2023-04-06T15:58:07;97927.56;;;1.63;50.38
40285;BME280;25997;50.214;19.354;2023-04-06T16:01:12;97934.41;;;1.63;50.24
40285;BME280;25997;50.214;19.354;2023-04-06T16:04:15;97937.13;;;1.64;50.06
40285;BME280;25997;50.214;19.354;2023-04-06T16:07:17;97937.00;;;1.63;50.50
40285;BME280;25997;50.214;19.354;2023-04-06T16:10:20;97937.72;;;1.60;50.79
40285;BME280;25997;50.214;19.354;2023-04-06T16:13:23;97938.63;;;1.61;50.83
40285;BME280;25997;50.214;19.354;2023-04-06T16:16:27;97936.66;;;1.57;50.98